AirNav   Air Wisconsin pilot careers
 
 983 users online  

KSPH Springhill Airport
Springhill, Louisiana, USA


FAA INFORMATION EFFECTIVE 04 JANUARY 2018

Location

FAA Identifier: SPH
Lat/Long: 32-59-01.4000N / 093-24-33.0000W
32-59.023333N / 093-24.550000W
32.9837222 / -93.4091667
(estimated)
Elevation: 217.6 ft. / 66.3 m (surveyed)
Variation: 02E (2010)
From city: 3 miles E of SPRINGHILL, LA
Time zone: UTC -6 (UTC -5 during Daylight Saving Time)
Zip code: 71075

Airport Operations

Airport use: Open to the public
Activation date: 01/1966
Control tower: no
ARTCC: FORT WORTH CENTER
FSS: DE RIDDER FLIGHT SERVICE STATION
NOTAMs facility: DRI (NOTAM-D service available)
Attendance: CONTINUOUS
Wind indicator: lighted
Segmented circle: no
Lights: MIRL RY 18/36, REIL RY 36 PRESET LOW INTST DUSK-DAWN; TO INCR INTST ACTVT - CTAF.
Beacon: white-green (lighted land airport)
Operates sunset to sunrise.

Airport Communications

CTAF/UNICOM: 122.8
SHREVEPORT APPROACH: 118.6
SHREVEPORT DEPARTURE: 118.6
WX AWOS-2 at AGO (18 nm NE): 118.05 (870-901-3532)
  • DURG HRS 0000-0600 APCH/DEP SVC IS PRVDD ON FREQS 121.4/381.6; OTHER TIMES PRIMARY APCH/DEP FREQS APPLY.

Nearby radio navigation aids

VOR radial/distance  VOR name  Freq  Var
EICr051/23.9BELCHER VORTAC117.4007E
EMGr008/36.2ELM GROVE VORTAC111.2007E
ELDr237/37.2EL DORADO VOR/DME115.5007E

 
NDB name  Hdg/Dist  Freq  Var  ID
ATLANTA096/39.934704EATA .- - .-

Airport Services

Fuel available: 100LL
FUEL NOT AVBL EXCEPT CASH
Parking: tiedowns
Airframe service: NONE
Powerplant service: NONE
Bottled oxygen: NONE
Bulk oxygen: NONE

Runway Information

Runway 18/36

Dimensions: 4202 x 75 ft. / 1281 x 23 m
Surface: asphalt, in fair condition
Runway edge lights: medium intensity
RUNWAY 18  RUNWAY 36
Latitude: 32-59.369873N32-58.677065N
Longitude: 093-24.551142W093-24.549622W
Elevation: 205.1 ft.217.5 ft.
Gradient: 0.3% UP
Traffic pattern: leftleft
Runway heading: 178 magnetic, 180 true358 magnetic, 360 true
Markings: nonprecision, in fair conditionnonprecision, in fair condition
Visual slope indicator: 2-light PAPI on left (3.50 degrees glide path)2-light PAPI on left (3.50 degrees glide path)
Runway end identifier lights: noyes
Touchdown point: yes, no lightsyes, no lights
Obstructions: 95 ft. trees, 2158 ft. from runway, 20:1 slope to clear80 ft. trees, 1339 ft. from runway, 89 ft. left of centerline, 14:1 slope to clear

Airport Ownership and Management from official FAA records

Ownership: Publicly-owned
Owner: CITY OF SPRINGHILL
MAYOR'S OFFICE, P.O. BOX 398
SPRINGHILL, LA 71075
Phone 318-539-5681
Manager: BOB GOODMAN
367 AIRPORT ROAD
SPRINGHILL, LA 71075
Phone 318-539-4568

Airport Operational Statistics

Aircraft based on the field: 10
Single engine airplanes: 8
Multi engine airplanes: 1
Ultralights: 1
    
Aircraft operations: avg 120/week *
60% local general aviation
40% transient general aviation
* for 12-month period ending 26 September 2017

Instrument Procedures

NOTE: All procedures below are presented as PDF files. If you need a reader for these files, you should download the free Adobe Reader.

NOT FOR NAVIGATION. Please procure official charts for flight.
FAA instrument procedures published for use between 4 January 2018 at 0901Z and 1 February 2018 at 0900Z.

 
IAPs - Instrument Approach Procedures
RNAV (GPS) RWY 36   download (229KB)
NOTE: Special Take-Off Minimums/Departure Procedures apply   download

Other nearby airports with instrument procedures:

KAGO - Ralph C Weiser Field Airport (18 nm NE)
KMNE - Minden Airport (21 nm S)
3F4 - Vivian Airport (31 nm W)
KDTN - Shreveport Downtown Airport (32 nm SW)
KBAD - Barksdale Air Force Base (32 nm SW)
 
Loc | Ops | Rwys | IFR | FBO | Links
Com | Nav | Svcs | Stats | Notes


 
Area around KSPH (Springhill Airport)
 
Road maps at: MapQuest Bing Google
 
Aerial photo
WARNING: Photo may not be current or correct
Aerial photo of KSPH (Springhill Airport)
Photo by Dwayne Wilson
Photo taken 27-Sep-2014
looking northwest.

Do you have a better or more recent aerial photo of Springhill Airport that you would like to share? If so, please send us your photo.

 
Sectional chart

 
Airport distance calculator
Flying to Springhill Airport? Find the distance to fly.

From to KSPH

Sunrise and sunset
Times for 21-Jan-2018
 Local
(UTC-6)
 Zulu
(UTC)
Morning civil twilight06:4912:49
Sunrise07:1613:16
Sunset17:3423:34
Evening civil twilight18:0100:01

Current date and time
Zulu (UTC)  22-Jan-2018 00:47:57
Local (UTC-6)  21-Jan-2018 18:47:57
 
METAR
KMNE 
21nm S 
220035Z AUTO 14006KT 10SM SCT050 BKN060 20/16 A2990 RMK AO2 T01950155
KDTN 
31nm SW 
212353Z 16011KT 10SM FEW035 SCT065 21/16 A2987 RMK AO2 SLP114 T02060156 10222 20200 58008
KBAD 
32nm SW 
212356Z AUTO 16012KT 10SM BKN039 20/15 A2988 RMK AO2 SLP120 T01990147 10215 20192 58007 $
KELD 
33nm NE 
212353Z AUTO 14008KT 10SM CLR 18/16 A2991 RMK AO2 SLP127 T01780161 10200 20178 58008 $
KSHV 
39nm SW 
212356Z 17013KT 10SM SCT065 21/16 A2988 RMK AO2 SLP114 60000 T02060161 10228 20194 56004
KTXK 
40nm NW 
212353Z 15012KT 10SM FEW037 FEW050 OVC080 19/16 A2984 RMK AO2 SLP102 60000 T01940156 10206 20189 58011
TAF
KBAD 
32nm SW 
211800Z 2118/2224 16012KT 9999 BKN020 QNH2990INS BECMG 2203/2204 18015G25KT 8000 -SHRA OVC012 QNH2982INS TEMPO 2206/2210 25025G35KT 4800 TSRA OVC007CB BECMG 2211/2212 27012G20KT 9999 NSW FEW010 QNH2985INS TX22/2122Z TN14/2214Z
KELD 
33nm NE 
211753Z 2118/2218 17010KT P6SM OVC015 FM220000 16012KT P6SM BKN035 FM220500 17012KT P6SM VCTS OVC030CB FM220700 VRB20G40KT 2SM TSRA BR OVC015CB FM221100 21010KT P6SM BKN080 FM221500 26013G22KT P6SM SCT250
KSHV 
39nm SW 
212117Z 2121/2218 17015G22KT P6SM SCT025 BKN060 BKN200 FM220200 17015G25KT P6SM VCTS OVC035CB TEMPO 2206/2210 VRB20G40KT 2SM TSRA BR OVC015CB FM221000 24010KT P6SM BKN070 FM221300 28012G18KT P6SM SCT250
NOTAMs
Click for the latest NOTAMs
NOTAMs are issued by the DoD/FAA and will open in a separate window not controlled by AirNav.

 

 
 

FBO, Fuel Providers, and Aircraft Ground Support

  
 Business Name 
 
 Contact 
 
 Services / Description 
 
Fuel Prices
 
Comments
  
City of Springhill (FBO) 318-539-4568
no information available

If you are affiliated with City of Springhill (FBO) and would like to show here your services, contact info, web link, logo, and more, click here
no prices available
 
   write
Update Fuel Prices
 

Would you like to see your business listed on this page?

 If your business provides an interesting product or service to pilots, flight crews, aircraft, or users of the Springhill Airport, you should consider listing it here.  To start the listing process, click on the button below
 
Add a business
 

Other Pages about Springhill Airport

www.springhilllouisiana.com/airportindpark.htm
 
Update a link
 
Copyright © AirNav, LLC. All rights reserved. Privacy Policy  Contact